Time,TemperatureF,DewpointF,PressureIn,WindDirection,WindDirectionDegrees,WindSpeedMPH,WindSpeedGustMPH,Humidity,HourlyPrecipIn,Conditions,Clouds,dailyrainin,SoftwareType,DateUTC
2013-01-31 00:03:00,13.8,5.2,29.86,NNW,331,0.0,0.0,68,0.00,,---,0.00,VWS V14.01,2013-01-31 06:03:00,
2013-01-31 00:09:00,13.8,5.2,29.86,NNW,331,0.0,0.0,68,0.00,,---,0.00,VWS V14.01,2013-01-31 06:09:00,
2013-01-31 00:14:00,13.6,5.1,29.86,NNW,331,0.0,0.0,68,0.00,,---,0.00,VWS V14.01,2013-01-31 06:14:00,
2013-01-31 00:20:00,13.5,4.9,29.86,NNW,331,0.0,0.0,68,0.00,,---,0.00,VWS V14.01,2013-01-31 06:20:00,
2013-01-31 00:25:00,13.3,4.7,29.86,NNW,331,0.0,0.0,68,0.00,,---,0.00,VWS V14.01,2013-01-31 06:25:00,
2013-01-31 00:31:00,13.1,4.5,29.86,NNW,331,0.0,0.0,68,0.00,,---,0.00,VWS V14.01,2013-01-31 06:31:00,
2013-01-31 00:36:00,12.9,4.4,29.86,NNW,331,0.0,0.0,68,0.00,,---,0.00,VWS V14.01,2013-01-31 06:36:00,
2013-01-31 00:41:00,12.7,4.2,29.86,NNW,331,0.0,0.0,68,0.00,,---,0.00,VWS V14.01,2013-01-31 06:41:00,
2013-01-31 00:47:00,12.6,4.0,29.86,NNW,331,0.0,0.0,68,0.00,,---,0.00,VWS V14.01,2013-01-31 06:47:00,
2013-01-31 00:52:00,12.6,4.0,29.89,NNW,331,0.0,0.0,68,0.00,,---,0.00,VWS V14.01,2013-01-31 06:52:00,
2013-01-31 00:57:00,12.6,4.0,29.89,NNW,331,0.0,0.0,68,0.00,,---,0.00,VWS V14.01,2013-01-31 06:57:00,
2013-01-31 01:02:00,12.2,3.7,29.89,NNW,331,0.0,0.0,68,0.00,,---,0.00,VWS V14.01,2013-01-31 07:02:00,
2013-01-31 01:07:00,12.2,3.7,29.89,NNW,331,0.0,0.0,68,0.00,,---,0.00,VWS V14.01,2013-01-31 07:07:00,
2013-01-31 01:13:00,12.0,3.5,29.89,NNW,331,0.0,0.0,68,0.00,,---,0.00,VWS V14.01,2013-01-31 07:13:00,
2013-01-31 01:19:00,11.7,3.2,29.89,NNW,331,0.0,0.0,68,0.00,,---,0.00,VWS V14.01,2013-01-31 07:19:00,
2013-01-31 01:25:00,11.7,3.2,29.89,NNW,331,0.0,0.0,68,0.00,,---,0.00,VWS V14.01,2013-01-31 07:25:00,
2013-01-31 01:30:00,11.5,3.0,29.89,NNW,331,0.0,0.0,68,0.00,,---,0.00,VWS V14.01,2013-01-31 07:30:00,
2013-01-31 01:36:00,11.3,2.8,29.89,NNW,331,0.0,0.0,68,0.00,,---,0.00,VWS V14.01,2013-01-31 07:36:00,
2013-01-31 01:41:00,11.3,2.8,29.89,NNW,331,0.0,0.0,68,0.00,,---,0.00,VWS V14.01,2013-01-31 07:41:00,
2013-01-31 01:46:00,11.1,2.6,29.89,NNW,331,0.0,0.0,68,0.00,,---,0.00,VWS V14.01,2013-01-31 07:46:00,
2013-01-31 01:52:00,10.9,2.5,29.89,NNW,331,0.0,0.0,68,0.00,,---,0.00,VWS V14.01,2013-01-31 07:52:00,
2013-01-31 01:58:00,10.8,2.3,29.89,NNW,331,0.0,0.0,68,0.00,,---,0.00,VWS V14.01,2013-01-31 07:58:00,
2013-01-31 02:04:00,10.6,2.1,29.89,NNW,331,0.0,0.0,68,0.00,,---,0.00,VWS V14.01,2013-01-31 08:04:00,
2013-01-31 02:09:00,10.4,2.0,29.89,NNW,331,0.0,0.0,68,0.00,,---,0.00,VWS V14.01,2013-01-31 08:09:00,
2013-01-31 02:15:00,10.2,1.8,29.89,NNW,331,0.0,0.0,68,0.00,,---,0.00,VWS V14.01,2013-01-31 08:15:00,
2013-01-31 02:21:00,9.9,1.4,29.89,NNW,331,0.0,0.0,68,0.00,,---,0.00,VWS V14.01,2013-01-31 08:21:00,
2013-01-31 02:26:00,9.9,1.4,29.89,NNW,331,0.0,0.0,68,0.00,,---,0.00,VWS V14.01,2013-01-31 08:26:00,
2013-01-31 02:32:00,9.7,1.3,29.89,NNW,331,0.0,0.0,68,0.00,,---,0.00,VWS V14.01,2013-01-31 08:32:00,
2013-01-31 02:37:00,9.7,1.3,29.89,NNW,331,0.0,0.0,68,0.00,,---,0.00,VWS V14.01,2013-01-31 08:37:00,
2013-01-31 02:43:00,9.5,1.1,29.89,NNW,331,0.0,0.0,68,0.00,,---,0.00,VWS V14.01,2013-01-31 08:43:00,
2013-01-31 02:48:00,9.5,1.1,29.89,NNW,331,0.0,0.0,68,0.00,,---,0.00,VWS V14.01,2013-01-31 08:48:00,
2013-01-31 02:53:00,9.3,0.9,29.89,NNW,331,0.0,0.0,68,0.00,,---,0.00,VWS V14.01,2013-01-31 08:53:00,
2013-01-31 02:58:00,9.5,1.1,29.89,NNW,331,0.0,0.0,68,0.00,,---,0.00,VWS V14.01,2013-01-31 08:58:00,
2013-01-31 03:04:00,9.3,0.9,29.89,NNW,331,0.0,0.0,68,0.00,,---,0.00,VWS V14.01,2013-01-31 09:04:00,
2013-01-31 03:09:00,9.3,0.9,29.89,NNW,331,0.0,0.0,68,0.00,,---,0.00,VWS V14.01,2013-01-31 09:09:00,
2013-01-31 03:15:00,9.3,0.9,29.89,NNW,331,0.0,0.0,68,0.00,,---,0.00,VWS V14.01,2013-01-31 09:15:00,
2013-01-31 03:20:00,9.1,0.7,29.89,NNW,331,0.0,0.0,68,0.00,,---,0.00,VWS V14.01,2013-01-31 09:20:00,
2013-01-31 03:26:00,9.0,0.6,29.89,NNW,331,0.0,0.0,68,0.00,,---,0.00,VWS V14.01,2013-01-31 09:26:00,
2013-01-31 03:31:00,8.8,0.4,29.89,NNW,331,0.0,0.0,68,0.00,,---,0.00,VWS V14.01,2013-01-31 09:31:00,
2013-01-31 03:36:00,8.6,0.2,29.89,NNW,331,0.0,0.0,68,0.00,,---,0.00,VWS V14.01,2013-01-31 09:36:00,
2013-01-31 03:41:00,8.6,0.2,29.89,NNW,331,0.0,0.0,68,0.00,,---,0.00,VWS V14.01,2013-01-31 09:41:00,
2013-01-31 03:47:00,8.8,0.4,29.89,NNW,331,0.0,0.0,68,0.00,,---,0.00,VWS V14.01,2013-01-31 09:47:00,
2013-01-31 03:52:00,8.8,0.4,29.89,NNW,331,0.0,0.0,68,0.00,,---,0.00,VWS V14.01,2013-01-31 09:52:00,
2013-01-31 03:57:00,8.8,0.4,29.89,NNW,331,0.0,0.0,68,0.00,,---,0.00,VWS V14.01,2013-01-31 09:57:00,
2013-01-31 04:02:00,8.6,0.2,29.89,NNW,331,0.0,0.0,68,0.00,,---,0.00,VWS V14.01,2013-01-31 10:02:00,
2013-01-31 04:08:00,8.4,0.1,29.89,NNW,331,0.0,0.0,68,0.00,,---,0.00,VWS V14.01,2013-01-31 10:08:00,
2013-01-31 04:13:00,8.4,0.1,29.89,NNW,331,0.0,0.0,68,0.00,,---,0.00,VWS V14.01,2013-01-31 10:13:00,
2013-01-31 04:18:00,8.1,-0.3,29.89,NNW,331,0.0,0.0,68,0.00,,---,0.00,VWS V14.01,2013-01-31 10:18:00,
2013-01-31 04:24:00,8.1,-0.3,29.92,NNW,331,0.0,0.0,68,0.00,,---,0.00,VWS V14.01,2013-01-31 10:24:00,
2013-01-31 04:29:00,7.9,-0.5,29.92,NNW,331,0.0,0.0,68,0.00,,---,0.00,VWS V14.01,2013-01-31 10:29:00,
2013-01-31 04:35:00,7.9,-0.5,29.92,NNW,331,0.0,0.0,68,0.00,,---,0.00,VWS V14.01,2013-01-31 10:35:00,
2013-01-31 04:40:00,7.7,-0.6,29.92,NNW,331,0.0,0.0,68,0.00,,---,0.00,VWS V14.01,2013-01-31 10:40:00,
2013-01-31 04:45:00,7.5,-0.8,29.92,NNW,331,0.0,0.0,68,0.00,,---,0.00,VWS V14.01,2013-01-31 10:45:00,
2013-01-31 04:50:00,7.3,-1.0,29.92,NNW,331,0.0,0.0,68,0.00,,---,0.00,VWS V14.01,2013-01-31 10:50:00,
2013-01-31 04:56:00,7.2,-1.2,29.92,NNW,331,0.0,0.0,68,0.00,,---,0.00,VWS V14.01,2013-01-31 10:56:00,
2013-01-31 05:01:00,7.0,-1.3,29.92,NNW,331,0.0,0.0,68,0.00,,---,0.00,VWS V14.01,2013-01-31 11:01:00,
2013-01-31 05:07:00,7.0,-1.3,29.92,NNW,331,0.0,0.0,68,0.00,,---,0.00,VWS V14.01,2013-01-31 11:07:00,
2013-01-31 05:12:00,6.6,-1.7,29.92,NNW,331,0.0,0.0,68,0.00,,---,0.00,VWS V14.01,2013-01-31 11:12:00,
2013-01-31 05:17:00,6.6,-1.7,29.92,NNW,331,0.0,0.0,68,0.00,,---,0.00,VWS V14.01,2013-01-31 11:17:00,
2013-01-31 05:23:00,6.4,-1.9,29.92,NNW,331,0.0,0.0,68,0.00,,---,0.00,VWS V14.01,2013-01-31 11:23:00,
2013-01-31 05:28:00,6.3,-2.0,29.92,NNW,331,0.0,0.0,68,0.00,,---,0.00,VWS V14.01,2013-01-31 11:28:00,
2013-01-31 05:33:00,6.1,-2.2,29.92,NNW,331,0.0,0.0,68,0.00,,---,0.00,VWS V14.01,2013-01-31 11:33:00,
2013-01-31 05:39:00,5.9,-2.4,29.95,NNW,331,0.0,0.0,68,0.00,,---,0.00,VWS V14.01,2013-01-31 11:39:00,
2013-01-31 05:44:00,5.9,-2.4,29.95,NNW,331,0.0,0.0,68,0.00,,---,0.00,VWS V14.01,2013-01-31 11:44:00,
2013-01-31 05:49:00,5.7,-2.5,29.95,NNW,331,0.0,0.0,68,0.00,,---,0.00,VWS V14.01,2013-01-31 11:49:00,
2013-01-31 05:55:00,5.5,-2.7,29.95,NNW,331,0.0,0.0,68,0.00,,---,0.00,VWS V14.01,2013-01-31 11:55:00,
2013-01-31 06:00:00,5.5,-2.7,29.95,NNW,331,0.0,0.0,68,0.00,,---,0.00,VWS V14.01,2013-01-31 12:00:00,
2013-01-31 06:06:00,5.4,-2.9,29.95,NNW,331,0.0,0.0,68,0.00,,---,0.00,VWS V14.01,2013-01-31 12:06:00,
2013-01-31 06:11:00,5.0,-3.2,29.95,NNW,331,0.0,0.0,68,0.00,,---,0.00,VWS V14.01,2013-01-31 12:11:00,
2013-01-31 06:17:00,5.4,-2.9,29.95,NNW,331,0.0,0.0,68,0.00,,---,0.00,VWS V14.01,2013-01-31 12:17:00,
2013-01-31 06:22:00,5.2,-3.1,29.95,NNW,331,0.0,0.0,68,0.00,,---,0.00,VWS V14.01,2013-01-31 12:22:00,
2013-01-31 06:27:00,5.0,-3.2,29.95,NNW,331,0.0,0.0,68,0.00,,---,0.00,VWS V14.01,2013-01-31 12:27:00,
2013-01-31 06:32:00,5.0,-3.2,29.95,NNW,331,0.0,0.0,68,0.00,,---,0.00,VWS V14.01,2013-01-31 12:32:00,
2013-01-31 06:37:00,4.8,-3.4,29.95,NNW,331,0.0,0.0,68,0.00,,---,0.00,VWS V14.01,2013-01-31 12:37:00,
2013-01-31 06:42:00,4.8,-3.4,29.95,NNW,331,0.0,0.0,68,0.00,,---,0.00,VWS V14.01,2013-01-31 12:42:00,
2013-01-31 06:48:00,4.8,-3.4,29.95,NNW,331,0.0,0.0,68,0.00,,---,0.00,VWS V14.01,2013-01-31 12:48:00,
2013-01-31 06:53:00,5.0,-3.2,29.95,NNW,331,0.0,0.0,68,0.00,,---,0.00,VWS V14.01,2013-01-31 12:53:00,
2013-01-31 06:59:00,4.8,-3.4,29.95,NNW,329,0.0,0.0,68,0.00,,---,0.00,VWS V14.01,2013-01-31 12:59:00,
2013-01-31 07:04:00,4.8,-3.4,29.95,NNW,329,0.0,0.0,68,0.00,,---,0.00,VWS V14.01,2013-01-31 13:04:00,
2013-01-31 07:09:00,4.8,-3.4,29.98,NNW,329,0.0,0.0,68,0.00,,---,0.00,VWS V14.01,2013-01-31 13:09:00,
2013-01-31 07:14:00,4.8,-3.4,29.98,NNW,329,0.0,0.0,68,0.00,,---,0.00,VWS V14.01,2013-01-31 13:14:00,
2013-01-31 07:19:00,4.5,-3.8,29.98,WNW,293,0.0,0.0,68,0.00,,---,0.00,VWS V14.01,2013-01-31 13:19:00,
2013-01-31 07:24:00,4.5,-3.8,29.98,NNE,18,0.0,0.0,68,0.00,,---,0.00,VWS V14.01,2013-01-31 13:24:00,
2013-01-31 07:29:00,4.3,-3.9,29.98,NNE,18,0.0,0.0,68,0.00,,---,0.00,VWS V14.01,2013-01-31 13:29:00,
2013-01-31 07:34:00,4.3,-3.9,29.98,NNE,18,0.0,0.0,68,0.00,,---,0.00,VWS V14.01,2013-01-31 13:34:00,
2013-01-31 07:40:00,4.1,-4.1,29.98,NNE,18,0.0,0.0,68,0.00,,---,0.00,VWS V14.01,2013-01-31 13:40:00,
2013-01-31 07:45:00,4.1,-4.1,29.98,NNE,18,0.0,0.0,68,0.00,,---,0.00,VWS V14.01,2013-01-31 13:45:00,
2013-01-31 07:51:00,4.1,-4.1,29.98,NNE,18,0.0,0.0,68,0.00,,---,0.00,VWS V14.01,2013-01-31 13:51:00,
2013-01-31 07:56:00,4.3,-3.9,29.98,NNE,18,0.0,0.0,68,0.00,,---,0.00,VWS V14.01,2013-01-31 13:56:00,
2013-01-31 08:01:00,4.3,-3.9,29.98,NNE,18,0.0,0.0,68,0.00,,---,0.00,VWS V14.01,2013-01-31 14:01:00,
2013-01-31 08:07:00,4.5,-3.8,30.01,NNE,18,0.0,0.0,68,0.00,,---,0.00,VWS V14.01,2013-01-31 14:07:00,
2013-01-31 08:13:00,4.5,-3.8,30.01,NNE,18,0.0,0.0,68,0.00,,---,0.00,VWS V14.01,2013-01-31 14:13:00,
2013-01-31 08:19:00,4.8,-3.4,30.01,NNE,18,0.0,0.0,68,0.00,,---,0.00,VWS V14.01,2013-01-31 14:19:00,
2013-01-31 08:24:00,5.0,-3.2,30.01,NNE,18,0.0,0.0,68,0.00,,---,0.00,VWS V14.01,2013-01-31 14:24:00,
2013-01-31 08:30:00,4.8,-3.4,30.01,NNE,18,0.0,0.0,68,0.00,,---,0.00,VWS V14.01,2013-01-31 14:30:00,
2013-01-31 08:36:00,5.0,-3.2,30.01,North,357,0.0,0.0,68,0.00,,---,0.00,VWS V14.01,2013-01-31 14:36:00,
2013-01-31 08:42:00,5.0,-3.2,30.01,WNW,291,0.0,0.0,68,0.00,,---,0.00,VWS V14.01,2013-01-31 14:42:00,
2013-01-31 08:47:00,4.8,-3.4,30.01,NNE,14,0.0,0.0,68,0.00,,---,0.00,VWS V14.01,2013-01-31 14:47:00,
2013-01-31 08:52:00,4.8,-3.4,30.01,NW,305,0.0,0.0,68,0.00,,---,0.00,VWS V14.01,2013-01-31 14:52:00,
2013-01-31 08:58:00,5.0,-3.2,30.01,WNW,301,0.0,0.0,68,0.00,,---,0.00,VWS V14.01,2013-01-31 14:58:00,
2013-01-31 09:03:00,5.2,-3.1,30.01,North,5,0.0,0.0,68,0.00,,---,0.00,VWS V14.01,2013-01-31 15:03:00,
2013-01-31 09:09:00,5.7,-2.5,30.04,North,5,0.0,0.0,68,0.00,,---,0.00,VWS V14.01,2013-01-31 15:09:00,
2013-01-31 09:14:00,5.9,-2.4,30.04,North,5,0.0,0.0,68,0.00,,---,0.00,VWS V14.01,2013-01-31 15:14:00,
2013-01-31 09:20:00,5.9,-2.4,30.04,North,5,0.0,0.0,68,0.00,,---,0.00,VWS V14.01,2013-01-31 15:20:00,
2013-01-31 09:26:00,6.1,-2.2,30.04,WNW,298,0.0,0.0,68,0.00,,---,0.00,VWS V14.01,2013-01-31 15:26:00,
2013-01-31 09:31:00,6.3,-2.0,30.04,WNW,286,0.0,0.0,68,0.00,,---,0.00,VWS V14.01,2013-01-31 15:31:00,
2013-01-31 09:37:00,6.3,-2.0,30.04,WNW,294,0.0,0.0,68,0.00,,---,0.00,VWS V14.01,2013-01-31 15:37:00,
2013-01-31 09:43:00,6.4,-1.9,30.04,West,276,0.0,0.0,68,0.00,,---,0.00,VWS V14.01,2013-01-31 15:43:00,
2013-01-31 09:48:00,6.8,-1.5,30.04,WNW,298,0.0,0.0,68,0.00,,---,0.00,VWS V14.01,2013-01-31 15:48:00,
2013-01-31 09:54:00,6.8,-1.5,30.07,West,278,0.0,13.4,68,0.00,,---,0.00,VWS V14.01,2013-01-31 15:54:00,
2013-01-31 10:00:00,6.8,-1.5,30.07,WNW,292,0.0,0.0,68,0.00,,---,0.00,VWS V14.01,2013-01-31 16:00:00,
2013-01-31 10:05:00,6.8,-1.5,30.07,NNW,338,0.0,0.0,68,0.00,,---,0.00,VWS V14.01,2013-01-31 16:05:00,
2013-01-31 10:11:00,7.0,-1.3,30.07,NNW,329,0.0,0.0,68,0.00,,---,0.00,VWS V14.01,2013-01-31 16:11:00,
2013-01-31 10:17:00,6.8,-1.5,30.07,NNE,15,0.0,0.0,68,0.00,,---,0.00,VWS V14.01,2013-01-31 16:17:00,
2013-01-31 10:22:00,7.0,-1.3,30.07,WSW,253,0.0,0.0,68,0.00,,---,0.00,VWS V14.01,2013-01-31 16:22:00,
2013-01-31 10:28:00,7.0,-1.3,30.07,WNW,297,0.0,0.0,68,0.00,,---,0.00,VWS V14.01,2013-01-31 16:28:00,
2013-01-31 10:33:00,6.8,-1.5,30.07,North,1,0.0,0.0,68,0.00,,---,0.00,VWS V14.01,2013-01-31 16:33:00,
2013-01-31 10:38:00,6.8,-1.5,30.10,North,11,0.0,0.0,68,0.00,,---,0.00,VWS V14.01,2013-01-31 16:38:00,
2013-01-31 10:43:00,6.6,-1.7,30.10,West,272,0.0,0.0,68,0.00,,---,0.00,VWS V14.01,2013-01-31 16:43:00,
2013-01-31 10:48:00,6.8,-1.5,30.10,West,275,0.0,0.0,68,0.00,,---,0.00,VWS V14.01,2013-01-31 16:48:00,
2013-01-31 10:54:00,6.8,-1.5,30.10,WNW,292,0.0,0.0,68,0.00,,---,0.00,VWS V14.01,2013-01-31 16:54:00,
2013-01-31 10:59:00,6.8,-1.5,30.10,WNW,287,0.0,0.0,68,0.00,,---,0.00,VWS V14.01,2013-01-31 16:59:00,
2013-01-31 11:04:00,6.8,-1.5,30.10,NNW,342,0.0,0.0,68,0.00,,---,0.00,VWS V14.01,2013-01-31 17:04:00,
2013-01-31 11:09:00,7.2,-1.2,30.13,West,279,0.0,0.0,68,0.00,,---,0.00,VWS V14.01,2013-01-31 17:09:00,
2013-01-31 11:14:00,7.0,-1.3,30.13,WNW,285,0.0,0.0,68,0.00,,---,0.00,VWS V14.01,2013-01-31 17:14:00,
2013-01-31 11:20:00,7.0,-1.3,30.13,West,278,0.0,0.0,68,0.00,,---,0.00,VWS V14.01,2013-01-31 17:20:00,
2013-01-31 11:25:00,7.0,-1.3,30.13,West,280,0.0,0.0,68,0.00,,---,0.00,VWS V14.01,2013-01-31 17:25:00,
2013-01-31 11:30:00,7.3,-1.0,30.13,NW,311,0.0,0.0,68,0.00,,---,0.00,VWS V14.01,2013-01-31 17:30:00,
2013-01-31 11:36:00,7.5,-0.8,30.13,West,280,6.7,6.7,68,0.00,,---,0.00,VWS V14.01,2013-01-31 17:36:00,
2013-01-31 11:42:00,7.7,-0.6,30.13,West,265,0.0,0.0,68,0.00,,---,0.00,VWS V14.01,2013-01-31 17:42:00,
2013-01-31 11:47:00,7.5,-0.8,30.13,West,268,6.7,6.7,68,0.00,,---,0.00,VWS V14.01,2013-01-31 17:47:00,
2013-01-31 11:52:00,7.2,-1.2,30.13,NNW,337,0.0,6.7,68,0.00,,---,0.00,VWS V14.01,2013-01-31 17:52:00,
2013-01-31 11:57:00,7.2,-1.2,30.13,WNW,297,0.0,0.0,68,0.00,,---,0.00,VWS V14.01,2013-01-31 17:57:00,
2013-01-31 12:02:00,7.0,-1.3,30.13,NW,321,6.7,6.7,68,0.00,,---,0.00,VWS V14.01,2013-01-31 18:02:00,
2013-01-31 12:08:00,7.0,-1.3,30.13,WNW,293,0.0,8.1,68,0.00,,---,0.00,VWS V14.01,2013-01-31 18:08:00,
2013-01-31 12:13:00,7.0,-1.3,30.13,NW,305,0.0,8.1,68,0.00,,---,0.00,VWS V14.01,2013-01-31 18:13:00,
2013-01-31 12:18:00,7.2,-1.2,30.13,WNW,302,6.7,6.7,68,0.00,,---,0.00,VWS V14.01,2013-01-31 18:18:00,
2013-01-31 12:24:00,7.7,-0.6,30.13,NNW,335,9.4,9.4,68,0.00,,---,0.00,VWS V14.01,2013-01-31 18:24:00,
2013-01-31 12:29:00,8.1,-0.3,30.13,North,11,0.0,6.7,68,0.00,,---,0.00,VWS V14.01,2013-01-31 18:29:00,
2013-01-31 12:34:00,8.6,0.2,30.13,SSW,200,8.1,8.1,68,0.00,,---,0.00,VWS V14.01,2013-01-31 18:34:00,
2013-01-31 12:39:00,8.8,0.4,30.13,NW,319,0.0,6.7,68,0.00,,---,0.00,VWS V14.01,2013-01-31 18:39:00,
2013-01-31 12:45:00,8.6,0.2,30.13,NW,325,6.7,6.7,68,0.00,,---,0.00,VWS V14.01,2013-01-31 18:45:00,
2013-01-31 12:50:00,8.6,0.2,30.13,NW,309,8.1,8.1,68,0.00,,---,0.00,VWS V14.01,2013-01-31 18:50:00,
2013-01-31 12:56:00,8.1,-0.3,30.13,SW,227,0.0,9.4,68,0.00,,---,0.00,VWS V14.01,2013-01-31 18:56:00,
2013-01-31 13:01:00,8.1,-0.3,30.13,NW,326,0.0,0.0,68,0.00,,---,0.00,VWS V14.01,2013-01-31 19:01:00,
2013-01-31 13:06:00,7.9,-0.5,30.13,WNW,299,0.0,8.1,68,0.00,,---,0.00,VWS V14.01,2013-01-31 19:06:00,
2013-01-31 13:12:00,7.7,-0.6,30.13,NNE,18,0.0,8.1,68,0.00,,---,0.00,VWS V14.01,2013-01-31 19:12:00,
2013-01-31 13:17:00,8.2,-0.1,30.13,North,9,0.0,0.0,68,0.00,,---,0.00,VWS V14.01,2013-01-31 19:17:00,
2013-01-31 13:22:00,8.4,0.1,30.13,North,350,0.0,0.0,68,0.00,,---,0.00,VWS V14.01,2013-01-31 19:22:00,
2013-01-31 13:28:00,8.1,-0.3,30.13,NW,326,0.0,0.0,68,0.00,,---,0.00,VWS V14.01,2013-01-31 19:28:00,
2013-01-31 13:34:00,8.6,0.2,30.13,WNW,295,6.7,6.7,68,0.00,,---,0.00,VWS V14.01,2013-01-31 19:34:00,
2013-01-31 13:39:00,8.8,0.4,30.13,NW,323,16.1,16.1,68,0.00,,---,0.00,VWS V14.01,2013-01-31 19:39:00,
2013-01-31 13:44:00,8.2,-0.1,30.13,NNW,330,6.7,6.7,68,0.00,,---,0.00,VWS V14.01,2013-01-31 19:44:00,
2013-01-31 13:49:00,8.2,-0.1,30.13,NNW,344,8.1,8.1,68,0.00,,---,0.00,VWS V14.01,2013-01-31 19:49:00,
2013-01-31 13:54:00,8.6,0.2,30.16,North,4,10.7,10.7,68,0.00,,---,0.00,VWS V14.01,2013-01-31 19:54:00,
2013-01-31 13:59:00,7.9,-0.5,30.16,NW,324,6.7,22.8,68,0.00,,---,0.00,VWS V14.01,2013-01-31 19:59:00,
2013-01-31 14:05:00,7.9,-0.5,30.16,WNW,297,24.2,24.2,68,0.00,,---,0.00,VWS V14.01,2013-01-31 20:05:00,
2013-01-31 14:10:00,7.7,-0.6,30.16,WNW,291,8.1,8.1,68,0.00,,---,0.00,VWS V14.01,2013-01-31 20:10:00,
2013-01-31 14:15:00,7.7,-0.6,30.16,WSW,246,10.7,10.7,68,0.00,,---,0.00,VWS V14.01,2013-01-31 20:15:00,
2013-01-31 14:20:00,7.9,-0.5,30.16,West,275,0.0,0.0,68,0.00,,---,0.00,VWS V14.01,2013-01-31 20:20:00,
2013-01-31 14:25:00,7.9,-0.5,30.16,North,0,17.4,17.4,68,0.00,,---,0.00,VWS V14.01,2013-01-31 20:25:00,
2013-01-31 14:31:00,7.5,-0.8,30.16,NNW,334,0.0,6.7,68,0.00,,---,0.00,VWS V14.01,2013-01-31 20:31:00,
2013-01-31 14:36:00,7.2,-1.2,30.16,SW,235,10.7,10.7,68,0.00,,---,0.00,VWS V14.01,2013-01-31 20:36:00,
2013-01-31 14:42:00,7.2,-1.2,30.16,NW,310,6.7,6.7,68,0.00,,---,0.00,VWS V14.01,2013-01-31 20:42:00,
2013-01-31 14:47:00,7.3,-1.0,30.16,NW,306,9.4,9.4,68,0.00,,---,0.00,VWS V14.01,2013-01-31 20:47:00,
2013-01-31 14:52:00,7.3,-1.0,30.16,NW,326,0.0,6.7,68,0.00,,---,0.00,VWS V14.01,2013-01-31 20:52:00,
2013-01-31 14:57:00,7.7,-0.6,30.16,North,357,17.4,17.4,68,0.00,,---,0.00,VWS V14.01,2013-01-31 20:57:00,
2013-01-31 15:03:00,7.7,-0.6,30.16,NNW,330,0.0,8.1,68,0.00,,---,0.00,VWS V14.01,2013-01-31 21:03:00,
2013-01-31 15:09:00,7.2,-1.2,30.19,WNW,297,0.0,16.1,68,0.00,,---,0.00,VWS V14.01,2013-01-31 21:09:00,
2013-01-31 15:15:00,6.8,-1.5,30.19,NNW,342,9.4,21.5,68,0.00,,---,0.00,VWS V14.01,2013-01-31 21:15:00,
2013-01-31 15:21:00,6.6,-1.7,30.19,WNW,290,0.0,17.4,68,0.00,,---,0.00,VWS V14.01,2013-01-31 21:21:00,
2013-01-31 15:27:00,6.4,-1.9,30.19,NW,312,0.0,8.1,68,0.00,,---,0.00,VWS V14.01,2013-01-31 21:27:00,
2013-01-31 15:32:00,6.1,-2.2,30.19,NW,304,0.0,0.0,68,0.00,,---,0.00,VWS V14.01,2013-01-31 21:32:00,
2013-01-31 15:37:00,6.1,-2.2,30.19,NNW,335,0.0,36.9,68,0.00,,---,0.00,VWS V14.01,2013-01-31 21:37:00,
2013-01-31 15:42:00,5.9,-2.4,30.19,NW,318,0.0,6.7,68,0.00,,---,0.00,VWS V14.01,2013-01-31 21:42:00,
2013-01-31 15:48:00,5.9,-2.4,30.19,North,357,10.7,22.8,68,0.00,,---,0.00,VWS V14.01,2013-01-31 21:48:00,
2013-01-31 15:54:00,6.1,-2.2,30.22,NNW,346,0.0,6.7,68,0.00,,---,0.00,VWS V14.01,2013-01-31 21:54:00,
2013-01-31 15:59:00,6.1,-2.2,30.22,NW,324,0.0,0.0,68,0.00,,---,0.00,VWS V14.01,2013-01-31 21:59:00,
2013-01-31 16:04:00,5.9,-2.4,30.22,WNW,290,0.0,0.0,68,0.00,,---,0.00,VWS V14.01,2013-01-31 22:04:00,
2013-01-31 16:09:00,5.7,-2.5,30.22,West,279,8.1,8.1,68,0.00,,---,0.00,VWS V14.01,2013-01-31 22:09:00,
2013-01-31 16:14:00,5.7,-2.5,30.22,SW,231,0.0,0.0,68,0.00,,---,0.00,VWS V14.01,2013-01-31 22:14:00,
2013-01-31 16:20:00,5.5,-2.7,30.22,North,357,0.0,0.0,68,0.00,,---,0.00,VWS V14.01,2013-01-31 22:20:00,
2013-01-31 16:25:00,5.5,-2.7,30.22,North,353,0.0,6.7,68,0.00,,---,0.00,VWS V14.01,2013-01-31 22:25:00,
2013-01-31 16:30:00,5.5,-2.7,30.22,NNW,338,6.7,6.7,68,0.00,,---,0.00,VWS V14.01,2013-01-31 22:30:00,
2013-01-31 16:36:00,5.5,-2.7,30.22,SW,219,0.0,0.0,68,0.00,,---,0.00,VWS V14.01,2013-01-31 22:36:00,
2013-01-31 16:41:00,5.5,-2.7,30.22,West,272,0.0,0.0,68,0.00,,---,0.00,VWS V14.01,2013-01-31 22:41:00,
2013-01-31 16:46:00,5.5,-2.7,30.22,WSW,244,0.0,0.0,68,0.00,,---,0.00,VWS V14.01,2013-01-31 22:46:00,
2013-01-31 16:51:00,5.5,-2.7,30.22,West,275,0.0,0.0,68,0.00,,---,0.00,VWS V14.01,2013-01-31 22:51:00,
2013-01-31 16:56:00,5.4,-2.9,30.22,NNW,340,0.0,6.7,68,0.00,,---,0.00,VWS V14.01,2013-01-31 22:56:00,
2013-01-31 17:02:00,5.4,-2.9,30.22,NW,320,18.8,18.8,68,0.00,,---,0.00,VWS V14.01,2013-01-31 23:02:00,
2013-01-31 17:07:00,5.2,-3.1,30.24,NNW,340,0.0,26.2,68,0.00,,---,0.00,VWS V14.01,2013-01-31 23:07:00,
2013-01-31 17:12:00,5.2,-3.1,30.24,NNW,330,0.0,0.0,68,0.00,,---,0.00,VWS V14.01,2013-01-31 23:12:00,
2013-01-31 17:17:00,5.2,-3.1,30.24,NNW,339,6.7,6.7,68,0.00,,---,0.00,VWS V14.01,2013-01-31 23:17:00,
2013-01-31 17:23:00,5.2,-3.1,30.24,NNW,339,0.0,12.1,68,0.00,,---,0.00,VWS V14.01,2013-01-31 23:23:00,
2013-01-31 17:28:00,5.0,-3.2,30.24,NNW,342,0.0,0.0,68,0.00,,---,0.00,VWS V14.01,2013-01-31 23:28:00,
2013-01-31 17:34:00,5.0,-3.2,30.24,West,259,0.0,0.0,68,0.00,,---,0.00,VWS V14.01,2013-01-31 23:34:00,
2013-01-31 17:39:00,5.0,-3.2,30.24,North,5,0.0,6.7,68,0.00,,---,0.00,VWS V14.01,2013-01-31 23:39:00,
2013-01-31 17:44:00,4.8,-3.4,30.24,WNW,303,0.0,0.0,68,0.00,,---,0.00,VWS V14.01,2013-01-31 23:44:00,
2013-01-31 17:50:00,4.6,-3.6,30.24,WSW,255,24.2,24.2,68,0.00,,---,0.00,VWS V14.01,2013-01-31 23:50:00,
2013-01-31 17:56:00,4.5,-3.8,30.24,NNW,333,0.0,0.0,68,0.00,,---,0.00,VWS V14.01,2013-01-31 23:56:00,
2013-01-31 18:01:00,4.5,-3.8,30.24,NNW,333,0.0,0.0,68,0.00,,---,0.00,VWS V14.01,2013-02-01 00:01:00,
2013-01-31 18:06:00,4.5,-3.8,30.24,NW,324,0.0,0.0,68,0.00,,---,0.00,VWS V14.01,2013-02-01 00:06:00,
2013-01-31 18:12:00,4.5,-3.8,30.24,NNW,332,24.2,24.2,68,0.00,,---,0.00,VWS V14.01,2013-02-01 00:12:00,
2013-01-31 18:18:00,4.5,-3.8,30.24,NNE,13,0.0,0.0,68,0.00,,---,0.00,VWS V14.01,2013-02-01 00:18:00,
2013-01-31 18:23:00,4.3,-3.9,30.27,NW,318,0.0,12.1,68,0.00,,---,0.00,VWS V14.01,2013-02-01 00:23:00,
2013-01-31 18:28:00,4.3,-3.9,30.27,NW,305,6.7,6.7,68,0.00,,---,0.00,VWS V14.01,2013-02-01 00:28:00,
2013-01-31 18:33:00,4.1,-4.1,30.27,North,3,6.7,6.7,68,0.00,,---,0.00,VWS V14.01,2013-02-01 00:33:00,
2013-01-31 18:38:00,4.1,-4.1,30.27,NW,318,0.0,0.0,68,0.00,,---,0.00,VWS V14.01,2013-02-01 00:38:00,
2013-01-31 18:44:00,4.1,-4.1,30.27,NW,324,0.0,8.1,68,0.00,,---,0.00,VWS V14.01,2013-02-01 00:44:00,
2013-01-31 18:50:00,3.9,-4.3,30.27,North,7,0.0,0.0,68,0.00,,---,0.00,VWS V14.01,2013-02-01 00:50:00,
2013-01-31 18:56:00,3.7,-4.4,30.27,NW,325,0.0,0.0,68,0.00,,---,0.00,VWS V14.01,2013-02-01 00:56:00,
2013-01-31 19:01:00,3.6,-4.6,30.27,NW,324,0.0,0.0,68,0.00,,---,0.00,VWS V14.01,2013-02-01 01:01:00,
2013-01-31 19:06:00,3.6,-4.6,30.27,NW,318,0.0,0.0,68,0.00,,---,0.00,VWS V14.01,2013-02-01 01:06:00,
2013-01-31 19:11:00,3.6,-4.6,30.27,NNW,346,0.0,0.0,68,0.00,,---,0.00,VWS V14.01,2013-02-01 01:11:00,
2013-01-31 19:17:00,3.4,-4.8,30.27,North,357,0.0,0.0,68,0.00,,---,0.00,VWS V14.01,2013-02-01 01:17:00,
2013-01-31 19:22:00,3.4,-4.8,30.27,West,276,0.0,0.0,68,0.00,,---,0.00,VWS V14.01,2013-02-01 01:22:00,
2013-01-31 19:28:00,3.2,-5.0,30.27,WNW,302,0.0,0.0,68,0.00,,---,0.00,VWS V14.01,2013-02-01 01:28:00,
2013-01-31 19:33:00,3.2,-5.0,30.27,NW,307,0.0,0.0,68,0.00,,---,0.00,VWS V14.01,2013-02-01 01:33:00,
2013-01-31 19:39:00,3.2,-5.0,30.27,NNW,337,6.7,6.7,68,0.00,,---,0.00,VWS V14.01,2013-02-01 01:39:00,
2013-01-31 19:44:00,3.2,-5.0,30.27,WNW,291,0.0,0.0,68,0.00,,---,0.00,VWS V14.01,2013-02-01 01:44:00,
2013-01-31 19:50:00,3.2,-5.0,30.27,NW,314,0.0,8.1,68,0.00,,---,0.00,VWS V14.01,2013-02-01 01:50:00,
2013-01-31 19:55:00,3.0,-5.1,30.27,West,261,0.0,0.0,68,0.00,,---,0.00,VWS V14.01,2013-02-01 01:55:00,
2013-01-31 20:00:00,3.0,-5.1,30.27,NNW,339,0.0,0.0,68,0.00,,---,0.00,VWS V14.01,2013-02-01 02:00:00,
2013-01-31 20:06:00,2.8,-5.3,30.27,North,0,0.0,0.0,68,0.00,,---,0.00,VWS V14.01,2013-02-01 02:06:00,
2013-01-31 20:11:00,2.8,-5.3,30.27,NNW,342,0.0,0.0,68,0.00,,---,0.00,VWS V14.01,2013-02-01 02:11:00,
2013-01-31 20:17:00,2.8,-5.3,30.27,NW,326,0.0,0.0,68,0.00,,---,0.00,VWS V14.01,2013-02-01 02:17:00,
2013-01-31 20:22:00,2.7,-5.5,30.30,NW,325,0.0,0.0,68,0.00,,---,0.00,VWS V14.01,2013-02-01 02:22:00,
2013-01-31 20:28:00,2.5,-5.7,30.30,North,0,0.0,17.4,68,0.00,,---,0.00,VWS V14.01,2013-02-01 02:28:00,
2013-01-31 20:34:00,2.3,-5.8,30.30,WNW,294,0.0,0.0,68,0.00,,---,0.00,VWS V14.01,2013-02-01 02:34:00,
2013-01-31 20:39:00,2.1,-6.0,30.27,NNW,337,0.0,0.0,68,0.00,,---,0.00,VWS V14.01,2013-02-01 02:39:00,
2013-01-31 20:44:00,2.3,-5.8,30.27,West,273,8.1,8.1,68,0.00,,---,0.00,VWS V14.01,2013-02-01 02:44:00,
2013-01-31 20:49:00,2.1,-6.0,30.27,NW,322,0.0,8.1,68,0.00,,---,0.00,VWS V14.01,2013-02-01 02:49:00,
2013-01-31 20:54:00,1.9,-6.2,30.30,SW,219,0.0,0.0,68,0.00,,---,0.00,VWS V14.01,2013-02-01 02:54:00,
2013-01-31 21:00:00,1.9,-6.2,30.30,WSW,249,0.0,6.7,68,0.00,,---,0.00,VWS V14.01,2013-02-01 03:00:00,
2013-01-31 21:05:00,1.9,-6.2,30.30,NW,306,0.0,0.0,68,0.00,,---,0.00,VWS V14.01,2013-02-01 03:05:00,
2013-01-31 21:10:00,1.8,-6.3,30.30,WNW,301,0.0,0.0,68,0.00,,---,0.00,VWS V14.01,2013-02-01 03:10:00,
2013-01-31 21:16:00,1.6,-6.5,30.30,West,277,0.0,0.0,68,0.00,,---,0.00,VWS V14.01,2013-02-01 03:16:00,
2013-01-31 21:22:00,1.6,-6.5,30.30,NNW,342,0.0,0.0,68,0.00,,---,0.00,VWS V14.01,2013-02-01 03:22:00,
2013-01-31 21:28:00,1.4,-6.7,30.30,NW,326,0.0,0.0,68,0.00,,---,0.00,VWS V14.01,2013-02-01 03:28:00,
2013-01-31 21:33:00,1.2,-6.9,30.30,NNW,337,0.0,8.1,68,0.00,,---,0.00,VWS V14.01,2013-02-01 03:33:00,
2013-01-31 21:38:00,1.2,-6.9,30.33,North,8,0.0,0.0,68,0.00,,---,0.00,VWS V14.01,2013-02-01 03:38:00,
2013-01-31 21:44:00,1.2,-6.9,30.33,NNW,333,0.0,0.0,68,0.00,,---,0.00,VWS V14.01,2013-02-01 03:44:00,
2013-01-31 21:49:00,1.0,-7.0,30.33,NW,325,6.7,6.7,68,0.00,,---,0.00,VWS V14.01,2013-02-01 03:49:00,
2013-01-31 21:55:00,0.9,-7.2,30.33,West,280,0.0,0.0,68,0.00,,---,0.00,VWS V14.01,2013-02-01 03:55:00,
2013-01-31 22:00:00,0.7,-7.4,30.33,WNW,297,0.0,0.0,68,0.00,,---,0.00,VWS V14.01,2013-02-01 04:00:00,
2013-01-31 22:06:00,0.7,-7.4,30.33,NW,307,0.0,0.0,68,0.00,,---,0.00,VWS V14.01,2013-02-01 04:06:00,
2013-01-31 22:11:00,0.7,-7.4,30.33,NW,306,0.0,0.0,68,0.00,,---,0.00,VWS V14.01,2013-02-01 04:11:00,
2013-01-31 22:17:00,0.5,-7.6,30.33,NW,323,0.0,0.0,68,0.00,,---,0.00,VWS V14.01,2013-02-01 04:17:00,
2013-01-31 22:22:00,0.3,-7.7,30.33,WNW,289,0.0,0.0,68,0.00,,---,0.00,VWS V14.01,2013-02-01 04:22:00,
2013-01-31 22:27:00,0.3,-7.7,30.33,NNW,346,0.0,0.0,68,0.00,,---,0.00,VWS V14.01,2013-02-01 04:27:00,
2013-01-31 22:32:00,0.0,-8.1,30.33,NW,309,0.0,0.0,68,0.00,,---,0.00,VWS V14.01,2013-02-01 04:32:00,
2013-01-31 22:38:00,0.0,-8.1,30.33,West,265,9.4,9.4,68,0.00,,---,0.00,VWS V14.01,2013-02-01 04:38:00,
2013-01-31 22:43:00,0.0,-8.1,30.33,North,353,0.0,0.0,68,0.00,,---,0.00,VWS V14.01,2013-02-01 04:43:00,
2013-01-31 22:48:00,0.0,-8.1,30.33,North,353,0.0,0.0,68,0.00,,---,0.00,VWS V14.01,2013-02-01 04:48:00,
2013-01-31 22:54:00,-0.2,-8.2,30.33,NW,316,0.0,0.0,68,0.00,,---,0.00,VWS V14.01,2013-02-01 04:54:00,
2013-01-31 23:00:00,-0.4,-8.4,30.33,NW,314,0.0,0.0,68,0.00,,---,0.00,VWS V14.01,2013-02-01 05:00:00,
2013-01-31 23:01:00,-0.6,-8.6,30.33,NW,321,0.0,0.0,68,0.00,,---,0.00,VWS V14.01,2013-02-01 05:01:00,
2013-01-31 23:04:00,-0.6,-8.6,30.33,NNW,328,0.0,0.0,68,0.00,,---,0.00,VWS V14.01,2013-02-01 05:04:00,
2013-01-31 23:06:00,-0.6,-8.6,30.33,West,266,0.0,0.0,68,0.00,,---,0.00,VWS V14.01,2013-02-01 05:06:00,
2013-01-31 23:12:00,-0.6,-8.6,30.33,NW,324,0.0,0.0,68,0.00,,---,0.00,VWS V14.01,2013-02-01 05:12:00,
2013-01-31 23:17:00,-0.8,-8.8,30.33,North,349,0.0,0.0,68,0.00,,---,0.00,VWS V14.01,2013-02-01 05:17:00,
2013-01-31 23:23:00,-0.9,-8.9,30.33,WNW,301,0.0,0.0,68,0.00,,---,0.00,VWS V14.01,2013-02-01 05:23:00,
2013-01-31 23:28:00,-0.9,-8.9,30.33,NNW,332,0.0,0.0,68,0.00,,---,0.00,VWS V14.01,2013-02-01 05:28:00,
2013-01-31 23:34:00,-0.9,-8.9,30.33,NNW,339,6.7,6.7,68,0.00,,---,0.00,VWS V14.01,2013-02-01 05:34:00,
2013-01-31 23:39:00,-0.9,-8.9,30.33,West,265,0.0,0.0,68,0.00,,---,0.00,VWS V14.01,2013-02-01 05:39:00,
2013-01-31 23:45:00,-1.1,-9.1,30.33,NNE,17,0.0,0.0,68,0.00,,---,0.00,VWS V14.01,2013-02-01 05:45:00,
2013-01-31 23:51:00,-1.1,-9.1,30.36,WNW,290,0.0,0.0,68,0.00,,---,0.00,VWS V14.01,2013-02-01 05:51:00,
2013-01-31 23:57:00,-1.3,-9.3,30.36,WNW,301,0.0,0.0,68,0.00,,---,0.00,VWS V14.01,2013-02-01 05:57:00,